createdAt,value
2019-02-23T00:01:50.796Z,9.00
2019-02-23T00:04:56.029Z,10.97
2019-02-23T00:08:01.177Z,9.40
2019-02-23T00:11:06.543Z,10.90
2019-02-23T00:14:11.672Z,10.43
2019-02-23T00:17:16.815Z,10.33
2019-02-23T00:20:22.047Z,9.60
2019-02-23T00:23:27.256Z,10.60
2019-02-23T00:26:32.369Z,9.53
2019-02-23T00:29:37.594Z,10.07
2019-02-23T00:32:42.636Z,9.97
2019-02-23T00:35:47.846Z,10.10
2019-02-23T00:38:52.987Z,10.63
2019-02-23T00:41:58.214Z,10.37
2019-02-23T00:45:03.331Z,10.60
2019-02-23T00:48:08.514Z,10.30
2019-02-23T00:51:13.683Z,11.10
2019-02-23T00:54:18.829Z,10.73
2019-02-23T00:57:23.983Z,10.57
2019-02-23T01:00:29.139Z,10.30
2019-02-23T01:03:34.315Z,10.97
2019-02-23T01:06:39.514Z,11.27
2019-02-23T01:09:44.898Z,11.53
2019-02-23T01:12:50.081Z,10.27
2019-02-23T01:15:55.221Z,11.93
2019-02-23T01:19:00.348Z,10.93
2019-02-23T01:22:05.481Z,12.10
2019-02-23T01:25:10.664Z,11.27
2019-02-23T01:28:15.825Z,12.47
2019-02-23T01:31:21.008Z,11.43
2019-02-23T01:34:26.082Z,11.27
2019-02-23T01:37:31.236Z,11.73
2019-02-23T01:40:36.384Z,11.87
2019-02-23T01:43:41.511Z,12.17
2019-02-23T01:46:46.744Z,11.23
2019-02-23T01:49:58.834Z,11.53
2019-02-23T01:52:58.916Z,11.80
2019-02-23T01:56:04.045Z,11.83
2019-02-23T01:59:09.225Z,12.00
2019-02-23T02:02:15.463Z,11.33
2019-02-23T02:05:20.552Z,11.40
2019-02-23T02:08:25.719Z,11.07
2019-02-23T02:11:30.816Z,12.30
2019-02-23T02:14:36.097Z,11.27
2019-02-23T02:17:41.269Z,10.83
2019-02-23T02:20:46.550Z,10.80
2019-02-23T02:23:51.717Z,11.43
2019-02-23T02:26:56.900Z,11.37
2019-02-23T02:30:02.119Z,11.80
2019-02-23T02:33:07.300Z,11.70
2019-02-23T02:36:12.473Z,11.03
2019-02-23T02:39:17.680Z,11.67
2019-02-23T02:42:22.899Z,11.23
2019-02-23T02:45:28.044Z,11.60
2019-02-23T02:48:33.131Z,11.77
2019-02-23T02:51:38.270Z,12.07
2019-02-23T02:54:43.401Z,10.07
2019-02-23T02:57:48.550Z,11.20
2019-02-23T03:00:53.828Z,11.53
2019-02-23T03:03:58.968Z,11.13
2019-02-23T03:07:04.225Z,11.97
2019-02-23T03:10:09.442Z,13.13
2019-02-23T03:13:14.650Z,13.03
2019-02-23T03:16:19.720Z,11.80
2019-02-23T03:19:24.828Z,11.63
2019-02-23T03:22:29.943Z,12.30
2019-02-23T03:25:35.115Z,13.00
2019-02-23T03:28:40.265Z,11.97
2019-02-23T03:31:45.405Z,12.43
2019-02-23T03:34:50.497Z,12.03
2019-02-23T03:37:55.657Z,12.07
2019-02-23T03:41:04.113Z,12.80
2019-02-23T03:44:09.218Z,11.90
2019-02-23T03:47:14.328Z,12.47
2019-02-23T03:50:19.511Z,12.43
2019-02-23T03:53:24.713Z,11.63
2019-02-23T03:56:29.872Z,11.70
2019-02-23T03:59:35.001Z,12.70
2019-02-23T04:02:40.174Z,12.97
2019-02-23T04:05:45.315Z,12.23
2019-02-23T04:08:50.430Z,12.80
2019-02-23T04:11:55.560Z,12.03
2019-02-23T04:15:00.705Z,12.77
2019-02-23T04:18:05.827Z,12.30
2019-02-23T04:21:11.009Z,12.37
2019-02-23T04:24:16.205Z,11.83
2019-02-23T04:27:21.356Z,12.33
2019-02-23T04:30:26.468Z,12.80
2019-02-23T04:33:31.607Z,13.60
2019-02-23T04:36:36.772Z,12.23
2019-02-23T04:39:41.949Z,12.43
2019-02-23T04:42:47.124Z,13.00
2019-02-23T04:45:52.255Z,13.23
2019-02-23T04:48:57.504Z,12.50
2019-02-23T04:52:02.726Z,13.27
2019-02-23T04:55:07.868Z,13.13
2019-02-23T04:58:12.983Z,13.30
2019-02-23T05:01:18.211Z,13.80
2019-02-23T05:04:23.376Z,13.80
2019-02-23T05:07:28.563Z,12.50
2019-02-23T05:10:33.689Z,14.47
2019-02-23T05:13:38.832Z,15.33
2019-02-23T05:16:43.950Z,13.03
2019-02-23T05:19:49.185Z,14.53
2019-02-23T05:22:54.300Z,13.50
2019-02-23T05:25:59.459Z,14.13
2019-02-23T05:29:04.596Z,14.77
2019-02-23T05:32:09.740Z,15.17
2019-02-23T05:35:14.883Z,14.63
2019-02-23T05:38:22.229Z,14.77
2019-02-23T05:41:27.483Z,14.27
2019-02-23T05:44:32.821Z,13.83
2019-02-23T05:47:38.010Z,13.10
2019-02-23T05:50:43.187Z,13.03
2019-02-23T05:53:48.273Z,14.47
2019-02-23T05:56:53.512Z,13.90
2019-02-23T05:59:58.653Z,14.90
2019-02-23T06:03:03.795Z,16.33
2019-02-23T06:06:08.968Z,19.00
2019-02-23T06:09:14.138Z,16.63
2019-02-23T06:12:19.182Z,14.43
2019-02-23T06:15:25.553Z,14.97
2019-02-23T06:18:30.757Z,14.17
2019-02-23T06:21:35.896Z,14.20
2019-02-23T06:24:41.075Z,13.00
2019-02-23T06:27:46.278Z,14.40
2019-02-23T06:30:51.459Z,14.73
2019-02-23T06:33:56.714Z,14.70
2019-02-23T06:37:01.868Z,13.70
2019-02-23T06:40:07.776Z,13.97
2019-02-23T06:43:12.898Z,15.10
2019-02-23T06:46:18.047Z,15.10
2019-02-23T06:49:23.197Z,14.07
2019-02-23T06:52:28.464Z,14.90
2019-02-23T06:55:33.688Z,13.30
2019-02-23T06:58:38.787Z,13.60
2019-02-23T07:01:43.941Z,13.10
2019-02-23T07:04:49.072Z,13.23
2019-02-23T07:07:54.219Z,12.20
2019-02-23T07:10:59.339Z,13.47
2019-02-23T07:14:04.555Z,13.27
2019-02-23T07:17:09.732Z,12.30
2019-02-23T07:20:14.928Z,13.83
2019-02-23T07:23:20.020Z,12.40
2019-02-23T07:26:25.161Z,12.80
2019-02-23T07:29:30.313Z,11.70
2019-02-23T07:32:35.507Z,12.00
2019-02-23T07:35:40.703Z,10.73
2019-02-23T07:38:45.820Z,11.77
2019-02-23T07:41:52.036Z,12.17
2019-02-23T07:44:57.160Z,13.30
2019-02-23T07:48:02.391Z,11.93
2019-02-23T07:51:07.628Z,11.70
2019-02-23T07:54:12.822Z,12.13
2019-02-23T07:57:18.074Z,12.13
2019-02-23T08:00:23.250Z,12.30
2019-02-23T08:03:28.372Z,12.27
2019-02-23T08:06:33.611Z,12.13
2019-02-23T08:09:38.927Z,12.17
2019-02-23T08:12:44.116Z,11.80
2019-02-23T08:15:49.610Z,11.40
2019-02-23T08:18:55.907Z,11.37
2019-02-23T08:22:01.017Z,11.07
2019-02-23T08:25:07.975Z,10.70
2019-02-23T08:28:13.214Z,10.70
2019-02-23T08:31:18.381Z,12.13
2019-02-23T08:34:25.233Z,11.83
2019-02-23T08:37:30.349Z,12.20
2019-02-23T08:40:35.457Z,10.33
2019-02-23T08:43:40.574Z,10.73
2019-02-23T08:46:45.812Z,10.70
2019-02-23T08:49:51.007Z,10.70
2019-02-23T08:52:56.200Z,10.43
2019-02-23T08:56:01.378Z,10.80
2019-02-23T08:59:06.530Z,10.10
2019-02-23T09:02:11.780Z,10.30
2019-02-23T09:05:16.951Z,10.83
2019-02-23T09:08:22.087Z,11.50
2019-02-23T09:11:27.202Z,10.33
2019-02-23T09:14:32.322Z,9.90
2019-02-23T09:17:37.605Z,10.67
2019-02-23T09:20:42.762Z,11.37
2019-02-23T09:23:47.910Z,13.90
2019-02-23T09:26:53.170Z,24.77
2019-02-23T09:29:58.425Z,12.70
2019-02-23T09:33:03.686Z,11.23
2019-02-23T09:36:08.862Z,10.13
2019-02-23T09:39:13.986Z,10.17
2019-02-23T09:42:19.066Z,9.73
2019-02-23T09:45:24.234Z,10.10
2019-02-23T09:48:29.324Z,9.93
2019-02-23T09:51:34.517Z,11.33
2019-02-23T09:54:39.622Z,10.73
2019-02-23T09:57:44.833Z,10.40
2019-02-23T10:00:49.989Z,10.20
2019-02-23T10:03:55.128Z,9.63
2019-02-23T10:07:00.330Z,10.50
2019-02-23T10:10:05.923Z,10.20
2019-02-23T10:13:11.101Z,10.97
2019-02-23T10:16:16.267Z,9.73
2019-02-23T10:19:21.491Z,10.37
2019-02-23T10:22:26.680Z,9.90
2019-02-23T10:25:31.876Z,9.87
2019-02-23T10:28:37.084Z,10.37
2019-02-23T10:31:42.379Z,11.23
2019-02-23T10:34:47.488Z,12.03
2019-02-23T10:37:52.626Z,13.67
2019-02-23T10:40:59.736Z,15.57
2019-02-23T10:44:04.650Z,15.03
2019-02-23T10:47:09.968Z,9.43
2019-02-23T10:50:15.819Z,10.43
2019-02-23T10:53:20.896Z,9.93
2019-02-23T10:56:26.068Z,10.00
2019-02-23T10:59:31.209Z,10.47
2019-02-23T11:02:36.381Z,10.23
2019-02-23T11:05:41.566Z,11.60
2019-02-23T11:08:46.734Z,10.77
2019-02-23T11:11:51.922Z,11.23
2019-02-23T11:14:57.110Z,10.17
2019-02-23T11:18:03.063Z,9.87
2019-02-23T11:21:08.613Z,9.53
2019-02-23T11:24:14.057Z,10.50
2019-02-23T11:27:19.257Z,9.60
2019-02-23T11:30:24.420Z,9.33
2019-02-23T11:33:29.770Z,10.87
2019-02-23T11:36:34.935Z,9.47
2019-02-23T11:39:40.027Z,9.97
2019-02-23T11:42:45.170Z,10.73
2019-02-23T11:45:50.367Z,9.63
2019-02-23T11:48:55.619Z,11.10
2019-02-23T11:52:00.771Z,9.83
2019-02-23T11:55:06.059Z,10.33
2019-02-23T11:58:12.303Z,10.23
2019-02-23T12:01:18.521Z,9.93
2019-02-23T12:04:23.716Z,10.70
2019-02-23T12:07:28.863Z,10.77
2019-02-23T12:10:34.032Z,9.23
2019-02-23T12:13:39.288Z,10.60
2019-02-23T12:16:44.454Z,9.73
2019-02-23T12:19:49.626Z,9.73
2019-02-23T12:22:54.923Z,9.37
2019-02-23T12:26:00.123Z,9.23
2019-02-23T12:29:05.315Z,9.77
2019-02-23T12:32:10.545Z,9.17
2019-02-23T12:35:15.819Z,9.40
2019-02-23T12:38:20.994Z,9.80
2019-02-23T12:41:26.538Z,9.80
2019-02-23T12:44:31.878Z,9.23
2019-02-23T12:47:37.076Z,9.30
2019-02-23T12:50:42.236Z,8.87
2019-02-23T12:53:47.370Z,9.77
2019-02-23T12:56:52.528Z,8.63
2019-02-23T12:59:57.696Z,8.93
2019-02-23T13:03:02.842Z,9.67
2019-02-23T13:06:08.043Z,9.63
2019-02-23T13:09:18.190Z,9.73
2019-02-23T13:12:31.203Z,8.70
2019-02-23T13:16:13.310Z,10.23
2019-02-23T13:20:14.305Z,9.23
2019-02-23T13:23:42.016Z,9.80
2019-02-23T13:27:10.726Z,8.47
2019-02-23T13:30:50.095Z,8.67
2019-02-23T13:34:34.967Z,8.30
2019-02-23T13:38:08.655Z,8.10
2019-02-23T13:41:47.663Z,9.20
2019-02-23T13:45:33.769Z,9.50
2019-02-23T13:49:03.489Z,9.30
2019-02-23T13:52:55.775Z,8.67
2019-02-23T13:56:37.910Z,9.00
2019-02-23T14:00:23.748Z,7.87
2019-02-23T14:04:15.799Z,9.10
2019-02-23T14:08:02.560Z,8.73
2019-02-23T14:11:32.142Z,8.80
2019-02-23T14:15:12.124Z,10.10
2019-02-23T14:18:50.419Z,9.07
2019-02-23T14:22:23.718Z,8.97
2019-02-23T14:26:02.292Z,8.93
2019-02-23T14:29:13.393Z,8.97
2019-02-23T14:32:47.070Z,8.87
2019-02-23T14:36:16.337Z,9.63
2019-02-23T14:40:10.757Z,9.20
2019-02-23T14:44:12.219Z,9.67
2019-02-23T14:48:13.834Z,10.17
2019-02-23T14:51:57.651Z,10.00
2019-02-23T14:55:14.279Z,10.43
2019-02-23T14:59:14.994Z,10.37
2019-02-23T15:02:57.164Z,9.50
2019-02-23T15:06:39.319Z,9.73
2019-02-23T15:10:35.163Z,9.63
2019-02-23T15:14:05.519Z,10.20
2019-02-23T15:17:48.596Z,9.77
2019-02-23T15:21:02.500Z,9.47
2019-02-23T15:24:45.450Z,9.97
2019-02-23T15:28:36.921Z,9.23
2019-02-23T15:32:01.200Z,10.50
2019-02-23T15:35:43.341Z,11.07
2019-02-23T15:39:25.919Z,10.50
2019-02-23T15:43:08.862Z,19.17
2019-02-23T15:47:02.389Z,10.93
2019-02-23T15:50:13.005Z,12.67
2019-02-23T15:53:14.610Z,15.77
2019-02-23T15:56:19.807Z,10.33
2019-02-23T15:59:25.992Z,10.13
2019-02-23T16:02:31.165Z,9.73
2019-02-23T16:05:36.420Z,10.20
2019-02-23T16:08:41.554Z,9.07
2019-02-23T16:11:46.685Z,9.53
2019-02-23T16:14:51.914Z,9.07
2019-02-23T16:17:57.046Z,8.77
2019-02-23T16:21:03.815Z,8.87
2019-02-23T16:24:19.742Z,8.83
2019-02-23T16:27:25.004Z,9.67
2019-02-23T16:30:30.161Z,8.87
2019-02-23T16:33:35.800Z,9.53
2019-02-23T16:36:41.042Z,10.73
2019-02-23T16:39:46.260Z,9.70
2019-02-23T16:42:51.448Z,10.10
2019-02-23T16:45:56.630Z,10.90
2019-02-23T16:49:01.824Z,9.53
2019-02-23T16:52:09.230Z,9.17
2019-02-23T16:55:14.219Z,9.60
2019-02-23T16:58:19.409Z,9.10
2019-02-23T17:01:24.642Z,9.60
2019-02-23T17:04:29.844Z,9.70
2019-02-23T17:07:35.136Z,9.70
2019-02-23T17:10:40.360Z,9.47
2019-02-23T17:13:45.654Z,9.93
2019-02-23T17:16:50.792Z,9.53
2019-02-23T17:19:56.000Z,10.53
2019-02-23T17:23:02.098Z,11.83
2019-02-23T17:26:07.476Z,11.17
2019-02-23T17:29:12.738Z,12.67
2019-02-23T17:32:17.927Z,15.60
2019-02-23T17:35:23.127Z,15.20
2019-02-23T17:38:28.271Z,12.00
2019-02-23T17:41:33.403Z,15.03
2019-02-23T17:44:39.532Z,15.00
2019-02-23T17:47:44.710Z,16.80
2019-02-23T17:50:50.773Z,16.40
2019-02-23T17:53:56.087Z,14.97
2019-02-23T17:57:01.260Z,15.53
2019-02-23T18:00:07.744Z,19.37
2019-02-23T18:03:13.164Z,17.17
2019-02-23T18:06:18.416Z,17.27
2019-02-23T18:09:23.687Z,27.13
2019-02-23T18:12:29.716Z,21.20
2019-02-23T18:15:34.938Z,41.17
2019-02-23T18:18:40.140Z,21.97
2019-02-23T18:21:45.337Z,19.37
2019-02-23T18:24:50.640Z,27.83
2019-02-23T18:27:56.032Z,23.00
2019-02-23T18:31:01.298Z,22.60
2019-02-23T18:34:06.575Z,15.53
2019-02-23T18:37:11.723Z,15.63
2019-02-23T18:40:17.035Z,12.60
2019-02-23T18:43:22.290Z,15.27
2019-02-23T18:46:27.611Z,11.33
2019-02-23T18:49:32.815Z,11.70
2019-02-23T18:52:38.063Z,25.50
2019-02-23T18:55:43.253Z,13.40
2019-02-23T18:58:48.514Z,13.93
2019-02-23T19:01:53.831Z,11.10
2019-02-23T19:04:59.151Z,14.13
2019-02-23T19:08:04.510Z,16.83
2019-02-23T19:11:09.636Z,16.90
2019-02-23T19:14:14.951Z,16.23
2019-02-23T19:17:20.443Z,13.03
2019-02-23T19:20:25.567Z,14.70
2019-02-23T19:23:30.868Z,13.97
2019-02-23T19:26:38.131Z,14.80
2019-02-23T19:29:43.011Z,13.63
2019-02-23T19:32:48.342Z,14.00
2019-02-23T19:35:53.657Z,12.77
2019-02-23T19:38:58.895Z,12.60
2019-02-23T19:42:04.161Z,13.50
2019-02-23T19:45:09.702Z,11.67
2019-02-23T19:48:15.003Z,11.30
2019-02-23T19:51:20.114Z,12.30
2019-02-23T19:54:25.584Z,13.10
2019-02-23T19:57:30.790Z,15.20
2019-02-23T20:00:36.001Z,12.90
2019-02-23T20:03:41.497Z,13.40
2019-02-23T20:06:46.732Z,15.43
2019-02-23T20:09:51.976Z,14.93
2019-02-23T20:12:57.280Z,13.90
2019-02-23T20:16:03.486Z,12.77
2019-02-23T20:19:08.856Z,13.60
2019-02-23T20:22:14.186Z,13.97
2019-02-23T20:25:19.505Z,14.63
2019-02-23T20:28:24.679Z,13.90
2019-02-23T20:31:29.933Z,13.37
2019-02-23T20:34:35.397Z,12.13
2019-02-23T20:37:40.592Z,12.80
2019-02-23T20:40:45.879Z,13.20
2019-02-23T20:43:51.044Z,13.63
2019-02-23T20:46:56.193Z,12.97
2019-02-23T20:50:01.546Z,13.07
2019-02-23T20:53:06.829Z,12.17
2019-02-23T20:56:12.050Z,13.37
2019-02-23T20:59:17.275Z,13.27
2019-02-23T21:02:22.492Z,12.40
2019-02-23T21:05:27.634Z,12.57
2019-02-23T21:08:32.836Z,12.10
2019-02-23T21:11:38.042Z,12.77
2019-02-23T21:14:43.215Z,13.47
2019-02-23T21:17:48.587Z,13.63
2019-02-23T21:20:53.847Z,18.30
2019-02-23T21:23:59.049Z,15.30
2019-02-23T21:27:12.645Z,16.93
2019-02-23T21:30:11.376Z,17.87
2019-02-23T21:33:16.618Z,13.17
2019-02-23T21:36:22.755Z,13.27
2019-02-23T21:39:28.023Z,14.57
2019-02-23T21:42:33.148Z,14.90
2019-02-23T21:45:39.499Z,14.80
2019-02-23T21:48:44.670Z,13.27
2019-02-23T21:51:49.902Z,13.90
2019-02-23T21:54:55.128Z,14.63
2019-02-23T21:58:00.395Z,14.20
2019-02-23T22:01:05.604Z,14.23
2019-02-23T22:04:10.869Z,14.73
2019-02-23T22:07:16.180Z,13.27
2019-02-23T22:10:21.390Z,13.53
2019-02-23T22:13:26.558Z,12.10
2019-02-23T22:16:31.663Z,13.33
2019-02-23T22:19:36.829Z,12.93
2019-02-23T22:22:41.968Z,12.43
2019-02-23T22:25:47.159Z,13.33
2019-02-23T22:28:52.440Z,12.87
2019-02-23T22:31:58.672Z,12.50
2019-02-23T22:35:03.924Z,12.77
2019-02-23T22:38:09.174Z,12.07
2019-02-23T22:41:14.341Z,11.93
2019-02-23T22:44:19.547Z,12.90
2019-02-23T22:47:24.690Z,14.20
2019-02-23T22:50:30.042Z,14.90
2019-02-23T22:53:35.596Z,13.33
2019-02-23T22:56:40.815Z,13.70
2019-02-23T22:59:45.982Z,14.03
2019-02-23T23:02:51.350Z,15.07
2019-02-23T23:05:56.596Z,13.97
2019-02-23T23:09:01.725Z,12.50
2019-02-23T23:12:08.599Z,13.67
2019-02-23T23:15:13.944Z,13.43
2019-02-23T23:18:19.149Z,12.23
2019-02-23T23:21:24.285Z,13.07
2019-02-23T23:24:29.511Z,14.37
2019-02-23T23:27:34.729Z,13.63
2019-02-23T23:30:39.893Z,13.97
2019-02-23T23:33:45.324Z,16.27
2019-02-23T23:36:50.510Z,14.47
2019-02-23T23:39:55.704Z,13.20
2019-02-23T23:43:00.901Z,12.87
2019-02-23T23:46:06.142Z,13.40
2019-02-23T23:49:11.371Z,13.13
2019-02-23T23:52:16.597Z,12.30
2019-02-23T23:55:21.828Z,15.97
2019-02-23T23:58:27.033Z,13.90
